createdAt,value
2023-05-10T00:02:08.563Z,18.38
2023-05-10T00:05:50.416Z,20.42
2023-05-10T00:09:32.299Z,18.02
2023-05-10T00:13:14.335Z,15.35
2023-05-10T00:16:56.224Z,25.17
2023-05-10T00:20:38.113Z,18.67
2023-05-10T00:24:20.046Z,22.80
2023-05-10T00:28:02.796Z,21.40
2023-05-10T00:31:44.668Z,24.60
2023-05-10T00:35:27.069Z,22.35
2023-05-10T00:39:08.967Z,24.77
2023-05-10T00:42:50.846Z,18.40
2023-05-10T00:46:33.078Z,22.45
2023-05-10T00:50:15.963Z,17.15
2023-05-10T00:53:58.364Z,20.20
2023-05-10T00:57:40.669Z,11.07
2023-05-10T01:01:22.902Z,18.45
2023-05-10T01:05:05.251Z,14.52
2023-05-10T01:08:47.511Z,14.55
2023-05-10T01:12:29.486Z,13.32
2023-05-10T01:16:11.523Z,16.02
2023-05-10T01:19:53.521Z,13.10
2023-05-10T01:24:01.394Z,11.65
2023-05-10T01:27:45.974Z,13.93
2023-05-10T01:31:58.674Z,14.70
2023-05-10T01:35:55.511Z,16.92
2023-05-10T01:39:52.352Z,18.55
2023-05-10T01:43:44.035Z,12.07
2023-05-10T01:47:45.649Z,19.52
2023-05-10T01:51:38.557Z,18.23
2023-05-10T01:55:22.556Z,13.73
2023-05-10T01:59:09.852Z,16.70
2023-05-10T02:02:52.972Z,16.58
2023-05-10T02:06:36.117Z,12.00
2023-05-10T02:10:19.239Z,18.90
2023-05-10T02:14:02.368Z,17.45
2023-05-10T02:17:46.509Z,12.50
2023-05-10T02:21:30.568Z,14.73
2023-05-10T02:25:14.332Z,9.95
2023-05-10T02:28:57.207Z,11.35
2023-05-10T02:32:39.846Z,14.98
2023-05-10T02:36:23.874Z,20.27
2023-05-10T02:40:07.179Z,14.45
2023-05-10T02:43:53.976Z,15.30
2023-05-10T02:47:36.009Z,17.73
2023-05-10T02:51:20.849Z,21.00
2023-05-10T02:55:06.314Z,21.98
2023-05-10T02:58:48.294Z,24.83
2023-05-10T03:02:31.542Z,15.70
2023-05-10T03:06:13.528Z,23.02
2023-05-10T03:09:55.561Z,19.55
2023-05-10T03:13:50.023Z,21.25
2023-05-10T03:17:37.744Z,25.92
2023-05-10T03:21:21.586Z,23.42
2023-05-10T03:25:07.071Z,23.98
2023-05-10T03:28:50.650Z,18.48
2023-05-10T03:32:35.395Z,21.20
2023-05-10T03:36:17.457Z,21.42
2023-05-10T03:39:59.267Z,20.58
2023-05-10T03:43:42.191Z,24.27
2023-05-10T03:47:24.182Z,20.92
2023-05-10T03:51:06.094Z,29.75
2023-05-10T03:54:47.887Z,29.58
2023-05-10T03:58:29.793Z,26.95
2023-05-10T04:02:11.689Z,32.70
2023-05-10T04:06:03.514Z,28.15
2023-05-10T04:09:45.466Z,21.55
2023-05-10T04:13:27.733Z,24.55
2023-05-10T04:17:09.639Z,19.52
2023-05-10T04:20:51.683Z,23.83
2023-05-10T04:24:33.473Z,26.50
2023-05-10T04:28:15.433Z,30.33
2023-05-10T04:31:57.654Z,27.13
2023-05-10T04:35:41.050Z,27.35
2023-05-10T04:39:22.902Z,27.90
2023-05-10T04:43:04.741Z,32.78
2023-05-10T04:46:47.272Z,34.88
2023-05-10T04:50:29.231Z,32.22
2023-05-10T04:54:11.330Z,39.83
2023-05-10T04:57:53.461Z,24.50
2023-05-10T05:01:35.565Z,31.60
2023-05-10T05:05:17.428Z,27.10
2023-05-10T05:08:59.217Z,22.45
2023-05-10T05:12:41.112Z,23.40
2023-05-10T05:16:22.976Z,20.20
2023-05-10T05:20:05.579Z,24.88
2023-05-10T05:23:47.651Z,23.13
2023-05-10T05:27:29.488Z,24.25
2023-05-10T05:31:11.431Z,26.95
2023-05-10T05:34:53.406Z,22.85
2023-05-10T05:38:35.256Z,22.63
2023-05-10T05:42:18.705Z,21.48
2023-05-10T05:46:00.747Z,19.63
2023-05-10T05:49:42.607Z,19.20
2023-05-10T05:53:24.932Z,26.98
2023-05-10T05:57:06.947Z,24.17
2023-05-10T06:00:49.043Z,20.58
2023-05-10T06:04:30.974Z,31.00
2023-05-10T06:08:12.890Z,13.43
2023-05-10T06:11:54.699Z,21.33
2023-05-10T06:15:36.535Z,17.35
2023-05-10T06:19:18.445Z,22.67
2023-05-10T06:23:00.486Z,22.40
2023-05-10T06:26:42.291Z,15.02
2023-05-10T06:30:28.330Z,14.15
2023-05-10T06:34:10.283Z,22.00
2023-05-10T06:37:52.486Z,14.65
2023-05-10T06:41:34.361Z,17.40
2023-05-10T06:45:16.684Z,16.65
2023-05-10T06:48:58.899Z,19.55
2023-05-10T06:52:40.787Z,13.15
2023-05-10T06:56:22.758Z,17.40
2023-05-10T07:00:05.850Z,14.95
2023-05-10T07:03:47.849Z,21.67
2023-05-10T07:07:29.893Z,15.57
2023-05-10T07:11:11.787Z,16.95
2023-05-10T07:14:53.580Z,14.45
2023-05-10T07:18:35.470Z,8.73
2023-05-10T07:22:17.934Z,13.13
2023-05-10T07:26:00.428Z,11.45
2023-05-10T07:29:42.252Z,21.85
2023-05-10T07:33:24.079Z,10.57
2023-05-10T07:37:07.213Z,18.05
2023-05-10T07:40:49.024Z,17.23
2023-05-10T07:44:30.923Z,13.00
2023-05-10T07:48:12.853Z,12.30
2023-05-10T07:51:54.677Z,19.63
2023-05-10T07:55:36.492Z,14.05
2023-05-10T07:59:18.956Z,13.35
2023-05-10T08:03:01.122Z,12.82
2023-05-10T08:06:43.286Z,10.95
2023-05-10T08:10:25.719Z,14.27
2023-05-10T08:14:07.528Z,17.05
2023-05-10T08:17:49.398Z,11.90
2023-05-10T08:21:32.289Z,11.80
2023-05-10T08:25:14.150Z,12.25
2023-05-10T08:28:55.976Z,10.75
2023-05-10T08:32:39.254Z,15.30
2023-05-10T08:36:22.815Z,15.25
2023-05-10T08:40:05.204Z,24.13
2023-05-10T08:43:47.374Z,15.73
2023-05-10T08:47:30.193Z,15.82
2023-05-10T08:51:16.041Z,15.27
2023-05-10T08:54:58.230Z,14.38
2023-05-10T08:58:40.255Z,16.02
2023-05-10T09:02:23.335Z,11.38
2023-05-10T09:06:06.060Z,15.90
2023-05-10T09:09:48.267Z,8.77
2023-05-10T09:13:30.932Z,17.67
2023-05-10T09:17:13.241Z,16.15
2023-05-10T09:20:55.733Z,12.95
2023-05-10T09:24:43.353Z,18.67
2023-05-10T09:28:25.162Z,16.38
2023-05-10T09:32:07.101Z,13.43
2023-05-10T09:35:53.214Z,13.88
2023-05-10T09:39:37.031Z,10.23
2023-05-10T09:43:18.835Z,10.93
2023-05-10T09:47:04.428Z,17.88
2023-05-10T09:50:46.233Z,7.22
2023-05-10T09:54:28.132Z,14.50
2023-05-10T09:58:13.175Z,12.73
2023-05-10T10:01:58.956Z,10.60
2023-05-10T10:05:46.521Z,11.17
2023-05-10T10:09:29.049Z,10.10
2023-05-10T10:13:10.969Z,8.63
2023-05-10T10:17:06.682Z,8.57
2023-05-10T10:20:49.122Z,7.55
2023-05-10T10:24:31.164Z,12.57
2023-05-10T10:29:00.524Z,10.30
2023-05-10T10:33:10.180Z,10.50
2023-05-10T10:40:41.277Z,9.95
2023-05-10T10:44:26.187Z,9.90
2023-05-10T10:48:24.644Z,9.23
2023-05-10T10:52:30.909Z,10.27
2023-05-10T10:56:16.201Z,7.72
2023-05-10T11:00:21.358Z,6.13
2023-05-10T11:04:06.341Z,7.80
2023-05-10T11:07:58.950Z,9.23
2023-05-10T11:12:01.264Z,16.30
2023-05-10T11:15:53.181Z,5.80
2023-05-10T11:19:35.004Z,4.85
2023-05-10T11:23:18.723Z,5.90
2023-05-10T11:27:01.896Z,6.10
2023-05-10T11:30:45.438Z,6.32
2023-05-10T11:34:30.598Z,7.53
2023-05-10T11:38:13.855Z,6.97
2023-05-10T11:41:56.674Z,7.15
2023-05-10T11:45:39.082Z,6.75
2023-05-10T11:49:24.057Z,4.95
2023-05-10T11:53:06.361Z,11.20
2023-05-10T11:56:48.212Z,5.22
2023-05-10T12:00:30.790Z,7.97
2023-05-10T12:04:13.199Z,5.72
2023-05-10T12:08:15.420Z,6.03
2023-05-10T12:11:58.095Z,6.38
2023-05-10T12:15:40.025Z,6.25
2023-05-10T12:19:22.464Z,5.65
2023-05-10T12:23:04.816Z,8.40
2023-05-10T12:26:47.073Z,5.57
2023-05-10T12:30:31.026Z,5.40
2023-05-10T12:34:23.310Z,2.47
2023-05-10T12:38:27.981Z,5.55
2023-05-10T12:42:10.838Z,3.70
2023-05-10T12:45:52.777Z,5.15
2023-05-10T12:49:35.186Z,3.28
2023-05-10T12:53:17.739Z,4.35
2023-05-10T12:56:59.557Z,5.30
2023-05-10T13:00:41.572Z,5.07
2023-05-10T13:04:23.404Z,3.72
2023-05-10T13:08:05.831Z,2.72
2023-05-10T13:11:49.059Z,3.10
2023-05-10T13:15:30.953Z,6.35
2023-05-10T13:19:13.681Z,2.92
2023-05-10T13:22:55.646Z,3.33
2023-05-10T13:26:38.097Z,3.78
2023-05-10T13:30:19.994Z,2.20
2023-05-10T13:34:02.057Z,1.40
2023-05-10T13:37:43.933Z,2.50
2023-05-10T13:41:31.616Z,2.30
2023-05-10T13:45:14.209Z,5.72
2023-05-10T13:48:56.186Z,2.60
2023-05-10T13:52:38.377Z,3.00
2023-05-10T13:56:20.183Z,4.05
2023-05-10T14:00:02.076Z,0.60
2023-05-10T14:03:44.198Z,1.42
2023-05-10T14:07:26.059Z,2.17
2023-05-10T14:11:08.473Z,3.30
2023-05-10T14:14:50.402Z,1.13
2023-05-10T14:18:32.248Z,3.85
2023-05-10T14:22:14.162Z,2.50
2023-05-10T14:25:56.235Z,4.68
2023-05-10T14:29:38.312Z,1.58
2023-05-10T14:33:20.389Z,1.33
2023-05-10T14:37:02.395Z,1.38
2023-05-10T14:40:44.192Z,1.48
2023-05-10T14:44:26.087Z,4.90
2023-05-10T14:48:12.124Z,3.40
2023-05-10T14:51:54.098Z,1.15
2023-05-10T14:55:36.251Z,1.13
2023-05-10T14:59:18.099Z,2.50
2023-05-10T15:03:00.675Z,5.10
2023-05-10T15:06:43.009Z,2.67
2023-05-10T15:10:24.856Z,3.20
2023-05-10T15:14:07.094Z,2.28
2023-05-10T15:17:49.470Z,2.58
2023-05-10T15:21:36.161Z,6.28
2023-05-10T15:25:18.452Z,1.63
2023-05-10T15:29:00.638Z,2.03
2023-05-10T15:32:43.839Z,2.55
2023-05-10T15:36:26.064Z,2.35
2023-05-10T15:40:08.276Z,4.15
2023-05-10T15:43:50.103Z,3.47
2023-05-10T15:47:32.281Z,2.03
2023-05-10T15:51:14.186Z,1.50
2023-05-10T15:54:56.036Z,4.20
2023-05-10T15:58:39.238Z,3.67
2023-05-10T16:02:22.579Z,2.95
2023-05-10T16:06:05.143Z,1.60
2023-05-10T16:09:46.996Z,1.27
2023-05-10T16:13:29.883Z,3.83
2023-05-10T16:17:12.346Z,1.10
2023-05-10T16:20:55.239Z,3.85
2023-05-10T16:24:37.849Z,2.45
2023-05-10T16:28:23.123Z,4.72
2023-05-10T16:32:06.093Z,4.25
2023-05-10T16:35:48.826Z,3.88
2023-05-10T16:39:31.983Z,4.20
2023-05-10T16:43:17.119Z,5.20
2023-05-10T16:47:03.645Z,2.25
2023-05-10T16:50:48.373Z,4.10
2023-05-10T16:54:31.874Z,3.33
2023-05-10T16:58:15.035Z,2.40
2023-05-10T17:01:57.993Z,1.30
2023-05-10T17:05:41.290Z,3.65
2023-05-10T17:09:23.765Z,3.72
2023-05-10T17:13:08.014Z,2.05
2023-05-10T17:16:54.512Z,2.40
2023-05-10T17:20:37.266Z,3.87
2023-05-10T17:24:19.787Z,1.58
2023-05-10T17:28:02.478Z,1.38
2023-05-10T17:31:46.862Z,2.67
2023-05-10T17:35:31.671Z,2.80
2023-05-10T17:39:14.411Z,2.28
2023-05-10T17:42:57.461Z,2.47
2023-05-10T17:46:40.450Z,6.35
2023-05-10T17:50:23.214Z,3.83
2023-05-10T17:54:06.049Z,3.55
2023-05-10T17:57:49.885Z,3.65
2023-05-10T18:01:34.035Z,5.13
2023-05-10T18:05:17.239Z,2.53
2023-05-10T18:09:00.268Z,9.50
2023-05-10T18:12:42.707Z,3.80
2023-05-10T18:16:25.034Z,3.92
2023-05-10T18:20:08.473Z,4.65
2023-05-10T18:23:51.000Z,11.25
2023-05-10T18:27:33.802Z,5.15
2023-05-10T18:31:16.503Z,5.13
2023-05-10T18:34:58.632Z,20.35
2023-05-10T18:38:41.873Z,3.67
2023-05-10T18:42:24.585Z,5.28
2023-05-10T18:46:07.171Z,6.05
2023-05-10T18:49:49.695Z,6.05
2023-05-10T18:53:35.870Z,4.53
2023-05-10T18:57:18.611Z,22.65
2023-05-10T19:01:01.260Z,13.68
2023-05-10T19:04:43.938Z,25.88
2023-05-10T19:08:26.594Z,8.80
2023-05-10T19:12:09.403Z,21.25
2023-05-10T19:16:23.237Z,13.23
2023-05-10T19:20:10.370Z,13.73
2023-05-10T19:27:36.554Z,11.95
2023-05-10T19:31:19.757Z,10.30
2023-05-10T19:35:02.495Z,12.88
2023-05-10T19:38:45.088Z,9.93
2023-05-10T19:42:27.596Z,11.32
2023-05-10T19:46:10.397Z,6.15
2023-05-10T19:49:54.701Z,10.35
2023-05-10T19:53:37.505Z,9.63
2023-05-10T19:57:24.065Z,7.38
2023-05-10T20:01:12.878Z,11.55
2023-05-10T20:04:55.606Z,7.38
2023-05-10T20:08:39.197Z,12.25
2023-05-10T20:12:22.053Z,10.43
2023-05-10T20:16:06.543Z,8.23
2023-05-10T20:19:49.278Z,9.88
2023-05-10T20:23:32.114Z,8.35
2023-05-10T20:27:14.884Z,9.27
2023-05-10T20:30:58.400Z,12.07
2023-05-10T20:34:45.395Z,12.40
2023-05-10T20:42:11.166Z,10.77
2023-05-10T20:45:54.411Z,12.38
2023-05-10T20:49:38.381Z,12.25
2023-05-10T20:53:21.009Z,7.93
2023-05-10T20:57:03.602Z,11.93
2023-05-10T21:00:46.188Z,12.55
2023-05-10T21:04:28.947Z,14.38
2023-05-10T21:08:11.619Z,12.40
2023-05-10T21:11:54.222Z,11.93
2023-05-10T21:15:36.908Z,10.02
2023-05-10T21:19:19.953Z,10.50
2023-05-10T21:23:02.659Z,12.35
2023-05-10T21:26:45.084Z,12.20
2023-05-10T21:30:27.551Z,13.95
2023-05-10T21:34:09.730Z,12.90
2023-05-10T21:37:51.585Z,11.32
2023-05-10T21:41:33.508Z,17.92
2023-05-10T21:45:17.137Z,6.53
2023-05-10T21:48:58.948Z,12.43
2023-05-10T21:52:40.876Z,11.82
2023-05-10T21:56:23.109Z,15.40
2023-05-10T22:00:06.965Z,10.80
2023-05-10T22:03:48.845Z,16.40
2023-05-10T22:07:31.915Z,11.25
2023-05-10T22:11:13.744Z,11.63
2023-05-10T22:15:09.391Z,20.45
2023-05-10T22:18:54.214Z,14.88
2023-05-10T22:22:36.783Z,11.52
2023-05-10T22:26:18.675Z,15.88
2023-05-10T22:30:00.460Z,15.70
2023-05-10T22:33:42.375Z,12.90
2023-05-10T22:37:24.231Z,14.25
2023-05-10T22:41:06.639Z,8.75
2023-05-10T22:44:48.423Z,15.55
2023-05-10T22:48:30.333Z,14.50
2023-05-10T22:52:12.159Z,11.55
2023-05-10T22:55:54.061Z,12.85
2023-05-10T22:59:35.897Z,13.73
2023-05-10T23:03:18.156Z,16.50
2023-05-10T23:07:00.017Z,8.73
2023-05-10T23:10:42.062Z,14.52
2023-05-10T23:14:24.022Z,11.68
2023-05-10T23:18:06.243Z,11.23
2023-05-10T23:21:48.030Z,9.27
2023-05-10T23:25:29.887Z,11.57
2023-05-10T23:29:12.025Z,9.98
2023-05-10T23:32:53.890Z,15.23
2023-05-10T23:36:35.682Z,15.05
2023-05-10T23:40:17.823Z,16.10
2023-05-10T23:44:00.269Z,11.43
2023-05-10T23:47:42.164Z,11.73
2023-05-10T23:51:24.107Z,14.30
2023-05-10T23:55:06.369Z,5.80
2023-05-10T23:58:48.154Z,13.10
